createdAt,value
2024-04-05T10:49:35.475Z,0.10
2024-04-05T10:52:59.834Z,0.50
2024-04-05T10:56:19.702Z,1.03
2024-04-05T10:59:36.956Z,0.20
2024-04-05T11:02:54.532Z,0.25
2024-04-05T11:06:15.306Z,0.18
2024-04-05T11:09:42.570Z,0.20
2024-04-05T11:12:59.710Z,0.70
2024-04-05T11:16:17.265Z,0.10
2024-04-05T11:19:36.485Z,0.20
2024-04-05T11:22:53.802Z,0.28
2024-04-05T11:26:11.277Z,0.30
2024-04-05T11:29:28.654Z,0.20
2024-04-05T11:32:45.936Z,0.48
2024-04-05T11:36:03.079Z,0.40
2024-04-05T11:39:20.153Z,0.10
2024-04-05T11:42:37.322Z,0.83
2024-04-05T11:45:54.448Z,0.43
2024-04-05T11:49:13.408Z,0.53
2024-04-05T11:55:45.905Z,0.20
2024-04-05T11:59:02.960Z,0.20
2024-04-05T12:02:21.039Z,0.28
2024-04-05T12:05:40.026Z,0.37
2024-04-05T12:12:12.858Z,1.25
2024-04-05T12:15:30.005Z,0.50
2024-04-05T12:18:47.664Z,1.48
2024-04-05T12:22:05.531Z,0.53
2024-04-05T12:25:24.636Z,0.63
2024-04-05T12:28:41.941Z,0.93
2024-04-05T12:31:59.133Z,0.40
2024-04-05T12:35:16.994Z,0.30
2024-04-05T12:38:41.632Z,0.33
2024-04-05T12:41:55.011Z,0.20
2024-04-05T12:45:14.680Z,0.08
2024-04-05T12:48:32.181Z,0.33
2024-04-05T12:51:49.562Z,0.75
2024-04-05T12:55:06.759Z,0.60
2024-04-05T12:58:24.711Z,0.58
2024-04-05T13:01:42.070Z,1.48
2024-04-05T13:05:04.755Z,0.80
2024-04-05T13:08:22.343Z,0.40
2024-04-05T13:11:42.985Z,0.60
2024-04-05T13:15:00.058Z,0.40
2024-04-05T13:18:19.194Z,0.38
2024-04-05T13:21:37.552Z,0.10
2024-04-05T13:24:54.639Z,0.85
2024-04-05T13:28:12.462Z,0.25
2024-04-05T13:31:32.592Z,0.58
2024-04-05T13:34:49.690Z,0.18
2024-04-05T13:38:07.545Z,0.30
2024-04-05T13:41:25.345Z,0.20
2024-04-05T13:44:42.479Z,0.30
2024-04-05T13:47:59.669Z,0.30
2024-04-05T13:51:18.399Z,0.15
2024-04-05T13:54:35.751Z,0.20
2024-04-05T13:58:04.852Z,0.20
2024-04-05T14:01:27.408Z,0.30
2024-04-05T14:04:46.221Z,0.38
2024-04-05T14:08:03.561Z,0.35
2024-04-05T14:11:22.938Z,0.53
2024-04-05T14:14:41.048Z,0.30
2024-04-05T14:17:58.187Z,0.93
2024-04-05T14:21:19.672Z,0.48
2024-04-05T14:24:39.413Z,9.53
2024-04-05T14:27:57.935Z,22.60
2024-04-05T14:31:16.411Z,11.20
2024-04-05T14:34:34.967Z,5.48
2024-04-05T14:37:52.560Z,5.00
2024-04-05T14:41:17.913Z,2.70
2024-04-05T14:44:36.451Z,1.70
2024-04-05T14:47:54.162Z,2.40
2024-04-05T14:51:14.913Z,1.13
2024-04-05T14:54:32.218Z,0.70
2024-04-05T14:57:49.731Z,1.05
2024-04-05T15:01:11.924Z,1.13
2024-04-05T15:04:29.200Z,0.35
2024-04-05T15:07:46.404Z,0.50
2024-04-05T15:11:04.021Z,0.40
2024-04-05T15:14:21.201Z,0.30
2024-04-05T15:17:38.420Z,0.75
2024-04-05T15:20:57.947Z,1.20
2024-04-05T15:24:15.459Z,0.50
2024-04-05T15:27:33.823Z,2.15
2024-04-05T15:30:51.017Z,0.35
2024-04-05T15:34:08.156Z,0.68
2024-04-05T15:37:25.526Z,0.70
2024-04-05T15:40:42.703Z,0.58
2024-04-05T15:44:00.476Z,0.15
2024-04-05T15:47:17.979Z,0.35
2024-04-05T15:50:46.906Z,0.38
2024-04-05T15:53:59.658Z,9.10
2024-04-05T15:57:17.020Z,9.95
2024-04-05T16:00:34.518Z,3.70
2024-04-05T16:03:52.906Z,2.58
2024-04-05T16:07:10.596Z,2.35
2024-04-05T16:10:28.743Z,1.13
2024-04-05T16:13:45.845Z,0.73
2024-04-05T16:17:02.969Z,1.33
2024-04-05T16:20:21.319Z,1.28
2024-04-05T16:23:38.474Z,1.17
2024-04-05T16:26:55.749Z,0.90
2024-04-05T16:30:15.872Z,0.75
2024-04-05T16:33:33.191Z,2.00
2024-04-05T16:36:50.757Z,0.33
2024-04-05T16:40:08.443Z,1.08
2024-04-05T16:43:27.751Z,0.50
2024-04-05T16:46:45.756Z,0.35
2024-04-05T16:50:04.710Z,7.08
2024-04-05T16:56:36.973Z,2.08
2024-04-05T16:59:55.072Z,1.40
2024-04-05T17:03:13.559Z,2.20
2024-04-05T17:06:31.550Z,1.05
2024-04-05T17:09:51.515Z,0.65
2024-04-05T17:13:09.196Z,0.83
2024-04-05T17:16:26.788Z,0.58
2024-04-05T17:19:45.122Z,0.98
2024-04-05T17:23:02.804Z,1.15
2024-04-05T17:26:21.858Z,0.37
2024-04-05T17:29:40.762Z,1.13
2024-04-05T17:32:58.189Z,0.78
2024-04-05T17:36:16.967Z,0.60
2024-04-05T17:39:33.885Z,1.20
2024-04-05T17:42:52.296Z,2.28
2024-04-05T17:46:12.860Z,0.65
2024-04-05T17:49:31.136Z,0.70
2024-04-05T17:52:48.662Z,1.38
2024-04-05T17:56:05.810Z,0.50
2024-04-05T17:59:24.364Z,3.73
2024-04-05T18:02:44.365Z,5.28
2024-04-05T18:06:01.828Z,3.93
2024-04-05T18:09:19.978Z,2.30
2024-04-05T18:12:37.036Z,2.13
2024-04-05T18:15:54.312Z,1.70
2024-04-05T18:19:11.921Z,1.35
2024-04-05T18:22:29.610Z,1.25
2024-04-05T18:25:47.026Z,1.37
2024-04-05T18:29:05.805Z,1.00
2024-04-05T18:32:24.795Z,0.98
2024-04-05T18:35:42.492Z,1.20
2024-04-05T18:39:04.905Z,1.40
2024-04-05T18:42:31.422Z,0.80
2024-04-05T18:45:50.255Z,1.63
2024-04-05T18:49:07.840Z,1.15
2024-04-05T18:52:29.791Z,2.35
2024-04-05T18:55:48.361Z,1.68
2024-04-05T18:59:05.592Z,2.13
2024-04-05T19:02:26.875Z,2.03
2024-04-05T19:05:45.720Z,3.23
2024-04-05T19:09:04.013Z,3.65
2024-04-05T19:12:28.824Z,3.45
2024-04-05T19:15:50.117Z,3.40
2024-04-05T19:19:08.036Z,2.68
2024-04-05T19:22:26.516Z,3.43
2024-04-05T19:25:45.709Z,2.65
2024-04-05T19:32:22.818Z,3.63
2024-04-05T19:35:42.124Z,2.25
2024-04-05T19:39:01.544Z,2.43
2024-04-05T19:42:21.614Z,1.88
2024-04-05T19:45:41.805Z,2.10
2024-04-05T19:48:59.046Z,2.30
2024-04-05T19:52:16.475Z,1.93
2024-04-05T19:55:34.999Z,2.90
2024-04-05T19:58:52.780Z,3.18
2024-04-05T20:02:10.399Z,1.75
2024-04-05T20:05:48.432Z,3.18
2024-04-05T20:09:06.217Z,2.25
2024-04-05T20:12:24.286Z,2.30
2024-04-05T20:15:41.327Z,3.03
2024-04-05T20:18:59.741Z,2.20
2024-04-05T20:22:16.953Z,3.38
2024-04-05T20:25:34.100Z,2.53
2024-04-05T20:29:01.492Z,1.50
2024-04-05T20:32:29.148Z,1.40
2024-04-05T20:35:46.508Z,2.18
2024-04-05T20:39:04.337Z,1.93
2024-04-05T20:42:21.636Z,2.10
2024-04-05T20:45:38.743Z,2.30
2024-04-05T20:48:55.789Z,2.18
2024-04-05T20:52:13.944Z,1.80
2024-04-05T20:55:32.700Z,1.60
2024-04-05T20:58:49.853Z,1.95
2024-04-05T21:02:08.074Z,2.53
2024-04-05T21:05:25.819Z,2.18
2024-04-05T21:08:43.840Z,1.88
2024-04-05T21:12:00.913Z,2.00
2024-04-05T21:15:18.665Z,1.98
2024-04-05T21:18:36.198Z,1.70
2024-04-05T21:21:53.801Z,2.53
2024-04-05T21:25:12.248Z,2.05
2024-04-05T21:28:29.694Z,1.75
2024-04-05T21:31:48.505Z,1.63
2024-04-05T21:38:21.308Z,1.85
2024-04-05T21:41:38.591Z,2.38
2024-04-05T21:45:05.070Z,2.48
2024-04-05T21:48:24.972Z,1.53
2024-04-05T21:51:42.118Z,2.18
2024-04-05T21:54:59.549Z,2.13
2024-04-05T21:58:16.520Z,1.60
2024-04-05T22:01:33.689Z,1.25
2024-04-05T22:04:50.843Z,1.63
2024-04-05T22:08:10.007Z,1.60
2024-04-05T22:14:42.077Z,1.43
2024-04-05T22:17:59.697Z,1.85
2024-04-05T22:21:18.900Z,1.25
2024-04-05T22:24:35.925Z,2.13
2024-04-05T22:27:55.228Z,1.33
2024-04-05T22:34:27.387Z,0.83
2024-04-05T22:37:44.858Z,0.98
2024-04-05T22:41:01.969Z,1.15
2024-04-05T22:44:19.276Z,0.73
2024-04-05T22:47:37.729Z,1.20
2024-04-05T22:50:56.649Z,1.23
2024-04-05T22:54:13.653Z,1.00
2024-04-05T22:57:30.876Z,0.73
2024-04-05T23:00:47.958Z,1.95
2024-04-05T23:04:05.158Z,1.30
2024-04-05T23:07:22.035Z,1.70
2024-04-05T23:10:39.598Z,0.65
2024-04-05T23:13:57.587Z,0.55
2024-04-05T23:17:14.908Z,0.95
2024-04-05T23:20:32.160Z,0.53
2024-04-05T23:23:49.278Z,0.60
2024-04-05T23:27:06.755Z,0.40
2024-04-05T23:30:24.204Z,0.55
2024-04-05T23:33:41.322Z,0.55
2024-04-05T23:36:58.631Z,0.70
2024-04-05T23:40:18.246Z,1.45
2024-04-05T23:43:35.610Z,0.73
2024-04-05T23:46:52.514Z,0.65
2024-04-05T23:50:10.615Z,0.40
2024-04-05T23:53:38.763Z,0.47
2024-04-05T23:57:05.555Z,0.20
